Time;durP1;ratioP1;P1;durP2;ratioP2;P2;SDS_P1;SDS_P2;PMS_P1;PMS_P2;Temp;Humidity;BMP_temperature;BMP_pressure;BME280_temperature;BME280_humidity;BME280_pressure;Samples;Min_cycle;Max_cycle;Signal;HPM_P1;HPM_P2
2021/06/30 00:00:17;;;;;;;8.13;2.63;;;15.20;99.90;;;14.07;96.96;97223.56;5016425;28;20060;-65
2021/06/30 00:03:09;;;;;;;6.13;2.80;;;15.20;99.90;;;14.07;98.53;97214.88;5026878;28;20036;-65
2021/06/30 00:06:02;;;;;;;4.53;2.47;;;15.20;99.90;;;13.91;98.19;97221.06;5047080;28;20095;-65
2021/06/30 00:08:54;;;;;;;4.78;1.42;;;15.10;99.90;;;13.86;97.31;97217.88;5038773;28;20394;-65
2021/06/30 00:11:47;;;;;;;3.13;0.95;;;15.00;99.90;;;13.90;96.88;97208.09;5030132;28;20049;-65
2021/06/30 00:14:39;;;;;;;2.13;0.90;;;14.90;99.90;;;14.08;97.68;97198.28;5042773;28;20040;-64
2021/06/30 00:17:32;;;;;;;2.55;1.17;;;14.90;99.90;;;14.11;98.14;97188.47;5034276;28;20045;-65
2021/06/30 00:20:24;;;;;;;5.25;1.00;;;14.90;99.90;;;14.13;96.70;97189.22;5037273;28;20045;-65
2021/06/30 00:23:16;;;;;;;2.97;1.10;;;14.90;99.90;;;14.12;95.99;97184.94;5038873;28;20048;-65
2021/06/30 00:26:09;;;;;;;2.20;0.88;;;14.90;99.90;;;14.11;96.58;97180.66;5040078;28;20045;-65
2021/06/30 00:29:05;;;;;;;3.77;0.83;;;14.90;99.90;;;13.97;95.28;97172.84;5037163;28;20115;-65
2021/06/30 00:31:57;;;;;;;4.18;0.85;;;14.90;99.90;;;13.77;95.09;97174.09;5044690;28;20052;-65
2021/06/30 00:34:50;;;;;;;3.78;1.10;;;14.80;99.90;;;13.81;96.63;97180.81;5036554;28;20045;-65
2021/06/30 00:37:43;;;;;;;2.00;0.85;;;14.70;99.90;;;13.75;95.59;97184.63;5042176;28;20053;-65
2021/06/30 00:40:35;;;;;;;4.05;1.15;;;14.70;99.90;;;13.60;97.26;97202.06;5030756;28;20045;-65
2021/06/30 00:43:28;;;;;;;3.35;0.90;;;14.60;99.90;;;13.53;97.06;97203.34;5047507;28;20057;-65
2021/06/30 00:46:29;;;;;;;4.93;1.23;;;14.50;99.90;;;13.62;97.07;97181.09;5032589;28;20442;-65
2021/06/30 00:49:21;;;;;;;4.43;1.33;;;14.40;99.90;;;13.54;96.94;97171.13;5013522;28;20504;-65
2021/06/30 00:52:14;;;;;;;5.47;1.50;;;14.40;99.90;;;13.56;97.44;97169.25;5026760;28;20033;-65
2021/06/30 00:55:07;;;;;;;3.58;1.20;;;14.40;99.90;;;13.51;97.71;97175.69;5025148;28;20045;-65
2021/06/30 00:57:59;;;;;;;6.05;1.40;;;14.30;99.90;;;13.50;98.37;97187.91;5027399;28;20048;-65
2021/06/30 01:00:55;;;;;;;6.05;1.95;;;14.30;99.90;;;13.49;98.98;97186.22;5028764;28;20422;-65
2021/06/30 01:03:51;;;;;;;4.35;2.42;;;14.30;99.90;;;13.58;99.96;97187.44;5023073;28;20050;-65
2021/06/30 01:06:43;;;;;;;4.88;3.28;;;14.30;99.90;;;13.58;100.00;97200.47;5026550;28;20046;-65
2021/06/30 01:09:35;;;;;;;7.93;4.35;;;14.40;99.90;;;13.68;100.00;97196.34;5022813;28;20486;-65
2021/06/30 01:12:28;;;;;;;7.10;5.53;;;14.50;99.90;;;13.53;100.00;97195.53;5030236;28;20046;-65
2021/06/30 01:15:20;;;;;;;12.13;5.00;;;14.50;99.90;;;13.65;100.00;97177.47;5027480;28;20045;-65
2021/06/30 01:18:13;;;;;;;5.82;3.97;;;14.50;99.90;;;13.52;100.00;97172.97;5029416;28;20033;-65
2021/06/30 01:21:09;;;;;;;9.53;4.73;;;14.50;99.90;;;13.48;100.00;97191.50;5030345;28;20421;-66
2021/06/30 01:24:01;;;;;;;14.15;5.72;;;14.50;99.90;;;13.46;100.00;97177.75;5028672;28;20037;-65
2021/06/30 01:26:54;;;;;;;8.60;5.43;;;14.50;99.90;;;13.41;100.00;97180.66;5024069;28;20514;-65
2021/06/30 01:29:47;;;;;;;12.45;7.82;;;14.40;99.90;;;13.42;100.00;97178.88;5029402;28;20425;-65
2021/06/30 01:32:39;;;;;;;13.25;8.55;;;14.40;99.90;;;13.33;100.00;97165.44;5023392;28;20413;-65
2021/06/30 01:35:31;;;;;;;11.80;6.20;;;14.30;99.90;;;13.38;100.00;97166.00;5024604;28;20041;-65
2021/06/30 01:38:27;;;;;;;14.52;7.35;;;14.30;99.90;;;13.33;100.00;97160.22;5019886;28;20041;-65
2021/06/30 01:41:19;;;;;;;14.48;8.88;;;14.30;99.90;;;13.36;100.00;97157.47;5026978;28;20729;-65
2021/06/30 01:44:12;;;;;;;16.60;9.70;;;14.30;99.90;;;13.29;100.00;97163.94;5030208;28;20040;-65
2021/06/30 01:47:04;;;;;;;20.08;9.68;;;14.30;99.90;;;13.29;100.00;97168.34;5033245;28;20052;-65
2021/06/30 01:49:56;;;;;;;13.47;10.43;;;14.30;99.90;;;13.24;100.00;97176.41;5044542;28;20045;-65
2021/06/30 01:52:48;;;;;;;11.07;8.77;;;14.30;99.90;;;13.29;100.00;97168.34;5033370;28;20440;-65
2021/06/30 01:55:41;;;;;;;15.57;10.25;;;14.20;99.90;;;13.38;100.00;97175.59;5027318;28;20053;-65
2021/06/30 01:58:33;;;;;;;13.43;11.02;;;14.20;99.90;;;13.31;100.00;97175.13;5027096;28;20040;-65
2021/06/30 02:01:25;;;;;;;18.48;12.75;;;14.20;99.90;;;13.39;100.00;97170.31;5020478;28;20053;-65
2021/06/30 02:04:18;;;;;;;13.23;10.05;;;14.20;99.90;;;13.37;100.00;97177.38;5021696;28;20044;-65
2021/06/30 02:07:10;;;;;;;17.02;12.32;;;14.20;99.90;;;13.39;100.00;97172.91;5028213;28;20339;-65
2021/06/30 02:10:09;;;;;;;15.82;12.68;;;14.30;99.90;;;13.39;100.00;97182.50;5028095;28;20037;-65
2021/06/30 02:13:02;;;;;;;16.67;12.57;;;14.30;99.90;;;13.23;100.00;97185.16;5022833;28;20502;-65
2021/06/30 02:15:54;;;;;;;10.88;9.30;;;14.30;99.90;;;13.30;100.00;97183.88;5026974;28;20049;-65
2021/06/30 02:18:47;;;;;;;17.17;10.77;;;14.30;99.90;;;13.30;100.00;97189.09;5024107;28;20171;-65
2021/06/30 02:21:39;;;;;;;;;;;14.20;99.90;;;13.23;100.00;97189.50;5026714;28;20044;-65
2021/06/30 02:24:32;;;;;;;16.02;9.60;;;14.20;99.90;;;13.22;100.00;97190.44;5028095;28;19928;-65
2021/06/30 02:27:25;;;;;;;11.50;8.68;;;14.20;99.90;;;13.22;100.00;97190.44;5021898;28;20045;-65
2021/06/30 02:30:23;;;;;;;;;;;14.20;99.90;;;13.18;100.00;97180.22;5026697;28;20044;-65
2021/06/30 02:33:15;;;;;;;17.35;7.95;;;14.20;99.90;;;13.09;100.00;97188.59;5027162;28;19928;-65
2021/06/30 02:36:07;;;;;;;11.10;4.70;;;14.20;99.90;;;13.09;100.00;97190.31;5023243;28;20068;-65
2021/06/30 02:38:59;;;;;;;8.18;4.82;;;14.20;99.90;;;13.09;100.00;97172.94;5027245;28;20061;-65
2021/06/30 02:41:52;;;;;;;8.00;4.73;;;14.10;99.90;;;13.03;100.00;97178.50;5028742;28;20053;-65
2021/06/30 02:44:44;;;;;;;8.13;3.77;;;14.10;99.90;;;13.07;100.00;97167.00;5019089;28;20040;-65
2021/06/30 02:47:39;;;;;;;8.00;4.18;;;14.00;99.90;;;13.02;100.00;97187.25;5024110;28;20272;-65
2021/06/30 02:50:31;;;;;;;6.45;4.28;;;14.00;99.90;;;12.92;100.00;97186.13;5024706;28;20053;-65
2021/06/30 02:53:23;;;;;;;6.43;4.45;;;14.00;99.90;;;12.94;100.00;97200.72;5027926;28;20714;-65
2021/06/30 02:56:15;;;;;;;13.30;4.53;;;14.00;99.90;;;13.01;100.00;97193.38;5024421;28;20041;-65
2021/06/30 02:59:08;;;;;;;7.68;5.25;;;14.00;99.90;;;13.02;100.00;97191.63;5025082;28;20046;-65
2021/06/30 03:02:00;;;;;;;6.30;4.55;;;13.90;99.90;;;13.01;100.00;97189.97;5026843;28;20065;-65
2021/06/30 03:04:53;;;;;;;4.85;3.40;;;13.90;99.90;;;12.97;100.00;97187.50;5023974;28;20510;-65
2021/06/30 03:07:49;;;;;;;5.87;4.73;;;13.90;99.90;;;13.00;100.00;97185.66;5008573;28;20050;-63
2021/06/30 03:10:42;;;;;;;7.18;4.30;;;13.90;99.90;;;12.96;100.00;97188.44;5020638;28;20046;-65
2021/06/30 03:13:34;;;;;;;10.45;4.85;;;13.90;99.90;;;12.90;100.00;97194.00;5022991;28;20103;-65
2021/06/30 03:16:27;;;;;;;8.85;7.18;;;13.90;99.90;;;12.86;100.00;97194.28;5018824;28;20029;-65
2021/06/30 03:19:19;;;;;;;10.40;6.07;;;13.90;99.90;;;12.90;100.00;97198.38;5022484;28;20042;-65
2021/06/30 03:22:11;;;;;;;9.88;4.78;;;13.90;99.90;;;12.89;100.00;97205.38;5024543;28;20121;-65
2021/06/30 03:25:05;;;;;;;7.63;5.22;;;13.90;99.90;;;12.87;100.00;97191.59;5026567;28;20053;-64
2021/06/30 03:27:57;;;;;;;8.68;6.40;;;13.90;99.90;;;12.77;100.00;97203.44;5026395;28;20042;-64
2021/06/30 03:30:49;;;;;;;5.45;4.18;;;13.90;99.90;;;12.77;100.00;97196.50;5029303;28;20038;-64
2021/06/30 03:33:43;;;;;;;6.70;5.00;;;14.00;99.90;;;12.81;100.00;97201.53;5025511;28;20049;-64
2021/06/30 03:36:36;;;;;;;9.48;3.83;;;13.90;99.90;;;12.87;100.00;97201.19;5029394;28;20045;-63
2021/06/30 03:39:28;;;;;;;8.80;4.18;;;13.90;99.90;;;12.82;100.00;97204.06;5029074;28;20184;-65
2021/06/30 03:42:20;;;;;;;9.27;4.43;;;13.90;99.90;;;12.74;100.00;97206.25;5030283;28;20033;-64
2021/06/30 03:45:12;;;;;;;10.13;4.57;;;13.90;99.90;;;12.74;100.00;97194.06;5029053;28;20045;-64
2021/06/30 03:48:05;;;;;;;5.93;4.32;;;14.00;99.90;;;12.96;100.00;97187.63;5029564;28;20046;-65
2021/06/30 03:50:57;;;;;;;6.47;4.22;;;13.90;99.90;;;12.87;100.00;97191.59;5028664;28;20068;-64
2021/06/30 03:53:49;;;;;;;8.87;3.50;;;13.90;99.90;;;12.80;100.00;97202.47;5021841;28;20064;-65
2021/06/30 03:56:42;;;;;;;6.07;3.58;;;13.90;99.90;;;12.86;100.00;97202.09;5021612;28;20043;-65
2021/06/30 03:59:34;;;;;;;4.32;3.13;;;13.90;99.90;;;12.94;100.00;97215.53;5030024;28;20060;-64
2021/06/30 04:02:26;;;;;;;5.13;3.08;;;13.90;99.90;;;12.89;100.00;97217.56;5029385;28;20057;-65
2021/06/30 04:05:18;;;;;;;6.50;3.67;;;13.90;99.90;;;12.91;100.00;97215.72;5029650;28;20046;-64
2021/06/30 04:08:12;;;;;;;9.45;4.05;;;13.90;99.90;;;12.94;100.00;97207.72;5025295;28;20452;-63
2021/06/30 04:11:04;;;;;;;7.80;4.38;;;13.90;99.90;;;12.91;100.00;97213.09;5029521;28;20064;-65
2021/06/30 04:13:56;;;;;;;6.00;4.20;;;14.00;99.90;;;13.05;100.00;97215.75;5026734;28;20041;-65
2021/06/30 04:16:49;;;;;;;8.02;4.55;;;13.90;99.90;;;12.92;100.00;97219.97;5028840;28;20045;-65
2021/06/30 04:19:41;;;;;;;4.10;3.45;;;14.00;99.90;;;13.01;100.00;97216.00;5027949;28;20064;-65
2021/06/30 04:22:34;;;;;;;5.18;3.05;;;14.00;99.90;;;13.06;99.73;97211.34;5030770;28;20049;-65
2021/06/30 04:25:26;;;;;;;8.88;5.15;;;14.00;99.90;;;12.95;99.48;97209.38;5028197;28;20108;-65
2021/06/30 04:28:18;;;;;;;8.33;4.10;;;14.10;99.90;;;13.07;99.71;97220.84;5014445;28;20045;-65
2021/06/30 04:31:10;;;;;;;7.70;4.53;;;14.10;99.90;;;13.03;100.00;97217.59;5029271;28;20053;-65
2021/06/30 04:34:03;;;;;;;6.68;3.70;;;14.00;99.90;;;13.05;100.00;97218.34;5029554;28;20386;-65
2021/06/30 04:36:55;;;;;;;9.15;4.53;;;14.10;99.90;;;13.03;100.00;97224.56;5024997;28;20057;-65
2021/06/30 04:39:47;;;;;;;8.68;4.95;;;14.20;99.90;;;12.97;100.00;97221.38;5027376;28;20068;-65
2021/06/30 04:42:39;;;;;;;7.15;3.50;;;14.20;99.90;;;13.05;100.00;97220.13;5019338;28;20041;-65
2021/06/30 04:45:31;;;;;;;7.95;4.35;;;14.20;99.90;;;13.10;100.00;97208.47;5028356;28;20544;-65
2021/06/30 04:48:23;;;;;;;7.47;3.37;;;14.20;99.90;;;13.19;99.72;97210.56;5029832;28;20037;-65
2021/06/30 04:51:16;;;;;;;6.40;2.83;;;14.20;99.90;;;13.24;99.79;97202.47;5025579;28;20450;-65
2021/06/30 04:54:08;;;;;;;7.40;3.00;;;14.20;99.90;;;13.27;99.01;97202.25;5029797;28;20041;-65
2021/06/30 04:57:01;;;;;;;5.17;2.17;;;14.20;99.90;;;13.15;99.06;97205.59;5021991;28;20034;-65
2021/06/30 04:59:53;;;;;;;5.38;2.85;;;14.10;99.90;;;13.03;99.58;97207.16;5027943;28;20296;-65
2021/06/30 05:02:46;;;;;;;4.10;3.22;;;14.10;99.90;;;12.93;100.00;97221.66;5031009;28;20045;-66
2021/06/30 05:05:38;;;;;;;6.20;3.33;;;14.10;99.90;;;12.95;100.00;97205.03;5025986;28;20044;-65
2021/06/30 05:08:30;;;;;;;4.93;4.10;;;14.10;99.90;;;12.89;100.00;97196.72;5028210;28;20042;-66
2021/06/30 05:11:18;;;;;;;6.93;3.65;;;14.00;99.90;;;12.93;99.47;97186.03;5029706;28;20041;-67
2021/06/30 05:14:10;;;;;;;5.10;3.73;;;13.90;99.90;;;13.00;99.59;97188.25;5021047;28;20037;-64
2021/06/30 05:17:02;;;;;;;7.90;4.10;;;14.00;99.90;;;12.96;99.76;97198.88;5027737;28;20399;-65
2021/06/30 05:19:55;;;;;;;7.13;3.20;;;14.00;99.90;;;13.01;98.62;97198.59;5026962;28;20037;-64
2021/06/30 05:22:47;;;;;;;8.95;3.85;;;14.10;99.90;;;12.93;97.87;97198.19;5027004;28;20521;-64
2021/06/30 05:25:39;;;;;;;8.70;3.40;;;14.00;99.90;;;12.89;97.75;97207.97;5026011;28;20041;-64
2021/06/30 05:28:32;;;;;;;4.45;3.50;;;14.00;99.90;;;13.08;98.29;97206.91;5012560;28;20046;-64
2021/06/30 05:31:24;;;;;;;6.68;3.95;;;13.90;99.90;;;13.00;98.42;97204.75;5022981;28;20037;-64
2021/06/30 05:34:16;;;;;;;5.37;4.17;;;13.90;99.90;;;12.87;99.53;97212.44;5022114;28;20034;-64
2021/06/30 05:37:08;;;;;;;8.50;3.88;;;13.90;99.90;;;13.04;97.88;97208.00;5015083;28;20060;-64
2021/06/30 05:40:02;;;;;;;8.70;4.70;;;13.90;99.90;;;12.95;97.11;97222.41;5022098;28;20413;-64
2021/06/30 05:42:57;;;;;;;6.47;4.00;;;14.00;99.90;;;12.87;96.78;97214.22;5027362;28;20048;-64
2021/06/30 05:45:49;;;;;;;6.20;4.28;;;14.00;99.90;;;12.87;97.28;97219.41;5028094;28;20046;-64
2021/06/30 05:48:41;;;;;;;8.10;4.83;;;14.10;99.90;;;13.14;96.59;97214.38;5022444;28;20060;-64
2021/06/30 05:51:34;;;;;;;9.75;4.72;;;14.10;99.90;;;13.10;96.95;97224.13;5026940;28;20292;-64
2021/06/30 05:54:26;;;;;;;7.93;5.70;;;14.20;99.90;;;13.17;95.90;97222.81;5026956;28;20033;-65
2021/06/30 05:57:19;;;;;;;4.60;3.50;;;14.20;99.90;;;13.26;95.30;97218.84;5026115;28;20049;-64
2021/06/30 06:00:19;;;;;;;6.22;3.08;;;14.20;99.90;;;13.19;94.03;97233.16;5026823;28;20505;-64
2021/06/30 06:03:11;;;;;;;5.93;4.30;;;14.30;99.90;;;13.26;95.17;97223.22;5017983;28;20098;-64
2021/06/30 06:06:03;;;;;;;5.13;4.20;;;14.30;99.90;;;13.10;94.25;97226.72;5026102;28;20528;-64
2021/06/30 06:08:56;;;;;;;5.78;3.72;;;14.40;99.90;;;13.17;94.01;97229.81;5025055;28;20284;-64
2021/06/30 06:11:48;;;;;;;5.30;3.90;;;14.40;99.90;;;13.32;94.21;97235.91;5021973;28;20034;-64
2021/06/30 06:14:40;;;;;;;6.40;3.37;;;14.50;99.90;;;13.41;92.94;97219.75;5029034;28;20041;-64
2021/06/30 06:17:33;;;;;;;7.50;3.70;;;14.70;99.90;;;13.43;92.89;97225.69;5026652;28;20281;-64
2021/06/30 06:20:25;;;;;;;5.53;3.70;;;14.80;99.90;;;13.35;92.65;97223.53;5027924;28;20037;-64
2021/06/30 06:23:17;;;;;;;6.37;3.00;;;14.90;99.90;;;13.69;92.99;97231.97;5028640;28;20045;-65
2021/06/30 06:26:10;;;;;;;4.65;3.17;;;15.00;99.90;;;13.76;91.47;97229.81;5027742;28;20613;-64
2021/06/30 06:29:04;;;;;;;4.82;2.90;;;15.00;99.90;;;13.64;91.95;97227.94;5026855;28;20144;-65
2021/06/30 06:31:56;;;;;;;3.90;2.83;;;14.80;99.90;;;13.74;91.33;97226.47;5025221;28;20053;-64
2021/06/30 06:34:48;;;;;;;4.72;2.22;;;14.80;99.90;;;13.67;91.31;97240.81;5026220;28;20535;-64
2021/06/30 06:37:41;;;;;;;9.60;6.27;;;14.80;99.90;;;13.83;90.15;97228.50;5027450;28;20129;-65
2021/06/30 06:40:33;;;;;;;2.17;0.95;;;14.90;99.90;;;14.51;87.95;97229.50;5026116;28;20049;-66
2021/06/30 06:43:25;;;;;;;4.55;1.10;;;15.10;99.90;;;14.76;86.20;97228.81;5018907;28;20049;-64
2021/06/30 06:46:18;;;;;;;1.75;1.02;;;15.40;99.90;;;15.15;84.33;97237.56;5025051;28;20045;-64
2021/06/30 06:49:11;;;;;;;4.60;0.90;;;15.60;99.90;;;15.28;83.70;97227.97;5025479;28;20054;-64
2021/06/30 06:52:04;;;;;;;3.03;0.87;;;15.80;99.90;;;15.12;84.46;97229.91;5025054;28;20062;-64
2021/06/30 06:54:56;;;;;;;4.53;1.23;;;15.80;99.90;;;14.92;83.56;97231.25;5022706;28;20125;-65
2021/06/30 06:57:49;;;;;;;2.83;1.00;;;15.80;99.90;;;15.17;82.69;97233.91;5027249;28;20049;-64
2021/06/30 07:00:41;;;;;;;4.07;1.23;;;15.60;99.90;;;14.89;82.85;97237.47;5012495;28;20045;-64
2021/06/30 07:03:34;;;;;;;5.00;1.20;;;15.60;99.90;;;15.01;82.60;97246.31;5030352;28;20465;-64
2021/06/30 07:06:26;;;;;;;1.67;0.90;;;15.50;99.90;;;15.00;82.38;97247.25;5026884;28;20818;-64
2021/06/30 07:09:19;;;;;;;2.22;0.80;;;15.40;99.90;;;15.05;82.59;97242.53;5030736;28;20046;-64
2021/06/30 07:12:11;;;;;;;2.80;0.80;;;15.40;99.90;;;14.98;82.42;97238.66;5031041;28;20034;-64
2021/06/30 07:15:07;;;;;;;3.17;1.45;;;15.40;99.90;;;14.48;84.35;97240.13;5029766;28;20107;-64
2021/06/30 07:17:59;;;;;;;2.55;0.98;;;15.40;99.90;;;14.64;84.84;97241.72;5017768;28;20054;-64
2021/06/30 07:20:52;;;;;;;4.27;1.10;;;15.30;99.90;;;14.65;84.91;97242.53;5029416;28;20048;-63
2021/06/30 07:23:44;;;;;;;2.80;1.48;;;15.30;99.90;;;14.38;85.88;97229.44;5031024;28;20553;-66
2021/06/30 07:26:36;;;;;;;3.65;1.20;;;15.30;99.90;;;14.51;85.91;97247.78;5030181;28;20057;-64
2021/06/30 07:29:28;;;;;;;1.53;0.87;;;15.40;99.90;;;15.15;83.83;97240.19;5030060;28;20049;-66
2021/06/30 07:32:20;;;;;;;2.67;0.98;;;15.60;99.90;;;15.60;82.35;97232.78;5030727;28;20656;-64
2021/06/30 07:35:13;;;;;;;1.67;0.80;;;16.00;99.90;;;16.21;80.00;97238.19;5031111;28;20045;-64
2021/06/30 07:38:06;;;;;;;1.50;0.90;;;16.40;99.90;;;16.39;79.52;97241.28;5026402;28;20280;-64
2021/06/30 07:40:58;;;;;;;2.15;0.70;;;16.90;99.90;;;16.73;77.82;97242.28;5031068;28;20387;-64
2021/06/30 07:43:50;;;;;;;4.90;0.93;;;17.20;99.90;;;16.58;77.09;97241.63;5030198;28;20041;-64
2021/06/30 07:46:38;;;;;;;4.10;1.05;;;17.40;99.90;;;16.83;76.36;97245.97;5030369;28;20054;-64
2021/06/30 07:49:25;;;;;;;2.10;0.70;;;17.50;99.90;;;17.23;75.99;97250.03;5011694;28;20061;-67
2021/06/30 07:52:12;;;;;;;2.17;0.80;;;17.60;99.90;;;16.83;75.35;97245.09;5028305;28;20073;-64
2021/06/30 07:55:00;;;;;;;2.92;0.70;;;17.70;99.90;;;17.21;73.50;97251.94;5024228;28;20057;-64
2021/06/30 07:57:48;;;;;;;1.00;0.60;;;17.70;99.90;;;17.49;73.10;97253.31;5021700;28;20521;-64
2021/06/30 08:00:35;;;;;;;1.17;0.77;;;17.90;99.90;;;17.46;71.43;97258.78;5029431;28;20111;-64
2021/06/30 08:03:22;;;;;;;2.03;0.80;;;18.10;99.90;;;17.70;71.09;97256.09;5030828;28;20048;-64
2021/06/30 08:06:10;;;;;;;1.20;0.70;;;18.20;99.90;;;17.98;70.02;97255.66;5030304;28;20481;-64
2021/06/30 08:08:57;;;;;;;3.65;0.70;;;18.60;99.90;;;18.10;68.10;97248.59;5031599;28;20099;-65
2021/06/30 08:11:45;;;;;;;2.30;0.88;;;18.80;99.90;;;18.12;68.78;97244.06;5030546;28;20449;-64
2021/06/30 08:14:33;;;;;;;1.83;0.60;;;18.80;99.90;;;18.23;66.95;97245.03;5028033;28;20137;-64
2021/06/30 08:17:21;;;;;;;1.95;0.75;;;18.90;99.90;;;18.33;67.11;97244.16;5030152;28;20477;-65
2021/06/30 08:20:09;;;;;;;4.90;2.03;;;18.80;99.90;;;17.78;67.35;97249.28;5030186;28;20045;-65
2021/06/30 08:22:56;;;;;;;2.55;0.70;;;18.70;99.90;;;17.41;71.40;97242.56;5030862;28;20054;-65
2021/06/30 08:25:45;;;;;;;1.75;0.55;;;18.60;99.90;;;17.86;68.85;97242.63;5025424;28;20038;-65
2021/06/30 08:28:33;;;;;;;1.75;0.75;;;18.50;99.90;;;17.28;69.58;97247.91;5010459;28;20042;-65
2021/06/30 08:31:20;;;;;;;3.58;2.28;;;18.30;99.90;;;17.25;70.31;97245.50;5029735;28;20057;-65
2021/06/30 08:34:07;;;;;;;1.83;0.70;;;18.00;99.90;;;16.88;70.83;97250.88;5033385;28;20095;-65
2021/06/30 08:37:05;;;;;;;1.85;0.75;;;17.70;99.90;;;17.14;69.62;97251.56;5038395;28;20470;-65
2021/06/30 08:39:54;;;;;;;3.15;0.82;;;17.50;99.90;;;17.40;69.44;97243.50;5027735;28;20117;-66
2021/06/30 08:42:43;;;;;;;2.25;0.85;;;17.60;99.90;;;17.46;69.35;97238.63;5031742;28;20049;-66
2021/06/30 08:45:30;;;;;;;1.13;0.75;;;17.90;99.90;;;17.78;68.75;97244.03;5030285;28;20045;-65
2021/06/30 08:48:19;;;;;;;3.42;0.88;;;18.20;99.90;;;18.12;67.01;97235.38;5029193;28;20533;-66
2021/06/30 08:51:09;;;;;;;1.20;0.70;;;18.70;99.90;;;18.13;67.06;97235.25;5025267;28;20061;-69
2021/06/30 08:53:57;;;;;;;2.25;0.63;;;19.00;99.90;;;18.28;65.75;97232.38;5020422;28;20052;-67
2021/06/30 08:56:45;;;;;;;2.38;0.70;;;19.10;99.90;;;18.15;65.01;97237.75;5014751;28;20042;-68
2021/06/30 08:59:33;;;;;;;1.33;0.63;;;19.10;99.90;;;17.90;65.26;97241.44;5030151;28;20054;-68
2021/06/30 09:02:20;;;;;;;3.40;0.60;;;18.90;99.90;;;18.05;65.36;97234.19;5023599;28;20072;-67
2021/06/30 09:05:13;;;;;;;3.22;0.60;;;18.70;99.90;;;17.72;65.38;97239.28;5032869;28;20053;-67
2021/06/30 09:08:01;;;;;;;1.30;0.63;;;18.50;99.90;;;17.14;66.95;97243.69;5026666;28;20083;-66
2021/06/30 09:10:49;;;;;;;1.15;0.55;;;18.20;99.90;;;16.94;67.53;97239.91;5026086;28;20048;-66
2021/06/30 09:13:36;;;;;;;4.28;0.60;;;18.00;99.90;;;17.43;67.24;97245.91;5039616;28;20480;-68
2021/06/30 09:16:23;;;;;;;1.90;0.55;;;18.20;99.90;;;17.84;66.13;97241.94;5040388;28;20037;-66
2021/06/30 09:19:12;;;;;;;0.82;0.50;;;18.50;99.90;;;18.26;65.02;97229.03;5046731;28;20244;-66
2021/06/30 09:21:59;;;;;;;3.17;0.60;;;18.80;99.90;;;18.55;63.10;97237.22;5031272;28;20042;-67
2021/06/30 09:24:48;;;;;;;5.60;0.60;;;19.10;99.90;;;18.54;63.32;97238.16;5045275;28;20053;-67
2021/06/30 09:27:43;;;;;;;2.10;0.50;;;19.40;99.90;;;18.37;62.12;97234.25;5040911;28;20037;-67
2021/06/30 09:30:30;;;;;;;3.10;0.50;;;19.50;99.90;;;17.88;64.61;97245.97;5030356;28;20505;-68
2021/06/30 09:33:18;;;;;;;0.80;0.38;;;19.40;99.90;;;18.51;64.09;97235.78;5038845;28;20056;-67
2021/06/30 09:36:05;;;;;;;0.85;0.40;;;19.10;99.90;;;17.69;64.44;97239.50;5030558;28;20048;-68
2021/06/30 09:38:53;;;;;;;6.50;0.77;;;19.00;99.90;;;17.51;64.93;97246.16;5021678;28;20038;-68
2021/06/30 09:41:45;;;;;;;1.63;0.52;;;18.80;99.90;;;17.43;65.39;97248.53;5034794;28;20509;-67
2021/06/30 09:44:33;;;;;;;2.50;0.50;;;18.40;99.90;;;17.38;66.36;97250.66;5040030;28;20120;-67
2021/06/30 09:47:20;;;;;;;1.50;0.47;;;18.20;99.90;;;17.12;66.88;97240.34;5046807;28;20041;-68
2021/06/30 09:50:08;;;;;;;1.98;0.40;;;18.20;99.90;;;17.01;67.83;97253.41;5045970;28;20475;-68
2021/06/30 09:52:55;;;;;;;1.58;0.50;;;18.40;99.90;;;17.50;65.91;97244.50;5046711;28;20056;-67
2021/06/30 09:55:43;;;;;;;2.88;0.30;;;18.50;99.90;;;17.40;66.77;97251.38;5045612;28;20040;-68
2021/06/30 09:58:31;;;;;;;2.78;0.40;;;18.70;99.90;;;17.31;65.15;97239.78;5034772;28;20041;-67
2021/06/30 10:01:20;;;;;;;0.90;0.40;;;18.80;99.90;;;18.05;65.02;97245.50;5027355;28;20076;-67
2021/06/30 10:04:10;;;;;;;0.95;0.40;;;19.10;99.90;;;18.43;65.25;97239.03;5025242;28;20056;-67
2021/06/30 10:07:03;;;;;;;0.93;0.40;;;19.30;99.90;;;18.31;64.74;97240.00;5025107;28;20037;-67
2021/06/30 10:09:51;;;;;;;1.42;0.57;;;19.40;99.90;;;18.63;63.55;97234.78;5024366;28;20041;-68
2021/06/30 10:12:38;;;;;;;1.83;0.60;;;19.20;99.90;;;18.02;66.57;97230.00;5027221;28;20037;-68
2021/06/30 10:15:26;;;;;;;1.42;0.52;;;19.20;99.90;;;17.84;65.39;97244.56;5028932;28;20133;-67
2021/06/30 10:18:13;;;;;;;1.88;0.50;;;19.20;99.90;;;17.84;65.44;97241.94;5012336;28;20045;-67
2021/06/30 10:21:01;;;;;;;1.75;0.60;;;18.90;99.90;;;17.82;65.72;97242.06;5028983;28;20041;-67
2021/06/30 10:23:49;;;;;;;1.70;0.47;;;18.60;99.90;;;17.09;67.17;97238.78;5024086;28;20041;-67
2021/06/30 10:26:36;;;;;;;3.17;0.52;;;18.40;99.90;;;17.64;67.19;97240.81;5031959;28;20187;-68
2021/06/30 10:29:34;;;;;;;2.28;0.50;;;18.30;99.90;;;17.55;67.85;97248.44;5025642;28;20052;-67
2021/06/30 10:32:26;;;;;;;0.73;0.40;;;18.40;99.90;;;17.90;67.02;97238.81;5013135;28;20454;-68
2021/06/30 10:35:17;;;;;;;0.82;0.40;;;18.50;99.90;;;17.86;65.53;97237.38;5028564;28;20034;-68
2021/06/30 10:38:05;;;;;;;0.93;0.40;;;18.60;99.90;;;17.83;65.41;97243.72;5019905;28;20034;-68
2021/06/30 10:40:52;;;;;;;1.73;0.40;;;18.50;99.90;;;17.43;65.98;97232.81;5033101;28;20038;-68
2021/06/30 10:44:08;;;;;;;3.38;0.45;;;18.40;99.90;;;17.69;65.95;97233.41;5015802;28;20545;-68
2021/06/30 10:46:56;;;;;;;0.57;0.40;;;18.50;99.90;;;17.43;67.50;97235.44;5035290;28;20087;-68
2021/06/30 10:49:43;;;;;;;1.95;0.50;;;18.50;99.90;;;17.25;67.15;97238.47;5033901;28;20123;-67
2021/06/30 10:52:31;;;;;;;0.90;0.30;;;18.50;99.90;;;17.66;66.64;97242.38;5041606;28;20053;-67
2021/06/30 10:58:29;;;;;;;3.17;0.80;;;18.20;99.90;;;17.24;68.35;97241.19;5040010;28;20033;-67
2021/06/30 11:01:18;;;;;;;1.67;0.50;;;18.20;99.90;;;17.70;67.67;97235.09;5053195;28;20041;-66
2021/06/30 11:04:05;;;;;;;1.60;0.60;;;18.40;99.90;;;16.93;69.34;97244.31;5042952;28;20688;-66
2021/06/30 11:06:52;;;;;;;2.55;0.73;;;18.20;99.90;;;16.95;70.57;97238.16;5048319;28;20429;-66
2021/06/30 11:09:40;;;;;;;1.80;0.55;;;18.00;99.90;;;16.64;70.96;97235.94;5050114;28;20118;-66
2021/06/30 11:12:52;;;;;;;4.00;0.73;;;18.00;99.90;;;16.74;69.61;97243.97;5045019;28;20450;-67
2021/06/30 11:15:40;;;;;;;4.43;0.80;;;18.00;99.90;;;16.60;69.86;97233.63;5054033;28;20037;-67
2021/06/30 11:18:27;;;;;;;1.63;0.70;;;18.00;99.90;;;16.99;69.24;97231.69;5051627;28;20454;-67
2021/06/30 11:21:16;;;;;;;3.92;0.70;;;18.20;99.90;;;17.27;68.68;97239.19;5043544;28;20367;-67
2021/06/30 11:24:43;;;;;;;1.50;0.70;;;18.30;99.90;;;17.45;68.93;97238.78;5032033;28;20071;-66
2021/06/30 11:27:35;;;;;;;3.30;0.70;;;18.50;99.90;;;17.58;67.69;97228.97;5050330;28;20041;-66
2021/06/30 11:30:30;;;;;;;6.63;0.70;;;18.90;99.90;;;17.59;69.00;97228.03;5046137;28;20099;-66
2021/06/30 11:33:18;;;;;;;2.35;0.95;;;18.80;99.90;;;16.77;70.77;97228.03;5048487;28;20286;-67
2021/06/30 11:36:05;;;;;;;2.15;0.90;;;18.50;99.90;;;16.92;70.74;97226.94;5051664;28;20040;-66
2021/06/30 11:38:53;;;;;;;4.22;0.80;;;18.30;99.90;;;16.12;73.56;97237.03;5036006;28;20046;-66
2021/06/30 11:41:51;;;;;;;1.73;0.55;;;18.10;99.90;;;15.89;74.20;97255.19;5042949;28;20048;-67
2021/06/30 11:44:39;;;;;;;2.63;0.70;;;17.90;99.90;;;15.89;74.38;97213.31;5018027;28;20439;-66
2021/06/30 11:47:27;;;;;;;4.80;1.00;;;17.60;99.90;;;15.72;75.85;97228.53;5026705;28;20401;-65
2021/06/30 11:50:18;;;;;;;1.50;0.82;;;17.50;99.90;;;15.85;75.18;97216.25;5014443;28;20528;-66
2021/06/30 11:53:05;;;;;;;2.30;0.70;;;17.50;99.90;;;16.00;75.52;97233.50;5023801;28;20497;-65
2021/06/30 11:55:52;;;;;;;1.15;0.70;;;17.60;99.90;;;15.98;74.67;97230.16;5023942;28;20034;-67
2021/06/30 11:58:47;;;;;;;2.40;1.00;;;17.70;99.90;;;15.83;74.18;97223.41;5018869;28;20080;-66
2021/06/30 12:01:37;;;;;;;2.35;0.80;;;17.80;99.90;;;16.10;74.08;97220.59;5022716;28;20033;-65